• Join FlightAware (Why Join?)
  • Login
  • US Flag 
01:26PM EST


 

Airport Tracker/Info


-or-


 

Live Flight TrackerFlight Track Log ✈ SKW6335 ✈ 28-Apr-2013 ✈ KSAN - KLAX

Flight Track Log - Related Links

Times and Time Zones

All times are in EDT time to prevent confusion due to time zone crossing. See the SKW6335 flight status page for this flight to view local times or setup timezone preferences in your user account.

Time Position Orientation Groundspeed Altitude Reporting Facility
EDT Latitude Longitude Course Direction KTS MPH feet Rate Location/Type
07:01PM 32.7667 -117.2667 292° West 178 205 2,900  Level Southern California TRACON
07:02PM 32.8000 -117.3167 308° West 177 204 4,300 1,320 Climbing Southern California TRACON
07:03PM 32.8022 -117.3319 280° West 171 197 4,700 1,200 Climbing Los Angeles Center
07:04PM 32.8408 -117.3744 317° Northwest 179 206 6,000 1,200 Climbing Los Angeles Center
07:05PM 32.9861 -117.4360 320° Northwest  Level FlightAware Approximate
07:05PM 32.8778 -117.4194 314° West 186 214 7,300  Level Los Angeles Center
07:06PM 32.9142 -117.4686 311° West 192 221 8,000 300 Climbing Los Angeles Center
07:07PM 32.9550 -117.5239 311° West 208 239 8,000  Level Los Angeles Center
07:08PM 32.9992 -117.5847 311° West 226 260 8,000  Level Los Angeles Center
07:09PM 33.0514 -117.6558 311° West 235 270 8,000  Level Los Angeles Center
07:10PM 33.0953 -117.7172 310° West 240 276 8,000  Level Los Angeles Center
07:11PM 33.1478 -117.7619 325° Northwest 241 277 8,000  Level Los Angeles Center
07:12PM 33.2114 -117.7917 339° North 247 284 8,000  Level Los Angeles Center
07:13PM 33.2753 -117.8219 338° Northwest 246 283 8,000  Level Los Angeles Center
07:14PM 33.3514 -117.8567 339° North 245 282 8,000  Level Los Angeles Center
07:15PM 33.4278 -117.8906 340° North 245 282 8,000  Level Los Angeles Center
07:16PM 33.4922 -117.9200 339° North 247 284 8,000 -240 Level Los Angeles Center
07:17PM 33.5556 -117.9481 340° North 245 282 7,600 -540 Descending Los Angeles Center
07:18PM 33.6181 -117.9761 340° North 243 280 6,900 -300 Descending Los Angeles Center
07:19PM 33.7000 -118.0167 338° Northwest 244 281 7,000  Climbing Southern California TRACON
07:20PM 33.7500 -118.0333 345° North 243 280 7,000  Level Southern California TRACON
07:21PM 33.8167 -118.0667 337° Northwest 240 276 7,000 -300 Level Southern California TRACON
07:22PM 33.8667 -118.0667 360° North 206 237 6,400 -1,020 Descending Southern California TRACON
07:23PM 33.9333 -118.0500 12° North 209 241 4,900 -1,200 Descending Southern California TRACON
07:24PM 33.9667 -118.0833 320° Northwest 191 220 4,000 -480 Descending Southern California TRACON
07:25PM 33.9667 -118.1500 270° West 182 209 4,000 -180 Level Southern California TRACON
07:26PM 33.9603 -118.1639 241° Southwest 183 211 3,800 -900 Descending Los Angeles Center
07:27PM 33.9547 -118.2261 264° West 186 214 2,700 -1,080 Descending Los Angeles Center